Time;durP1;ratioP1;P1;durP2;ratioP2;P2;SDS_P1;SDS_P2;PMS_P1;PMS_P2;Temp;Humidity;BMP_temperature;BMP_pressure;BME280_temperature;BME280_humidity;BME280_pressure;Samples;Min_cycle;Max_cycle;Signal;HPM_P1;HPM_P2
2022/01/31 19:25:41;;;;;;;29.42;4.40;;;5.30;99.90;;;;;;5120286;27;20394;-80
2022/01/31 19:28:07;;;;;;;28.25;5.22;;;5.50;99.90;;;;;;5097906;28;20044;-80
2022/01/31 19:30:34;;;;;;;34.13;5.45;;;5.50;99.90;;;;;;5101866;28;20038;-80
2022/01/31 19:33:05;;;;;;;25.00;4.72;;;5.40;99.90;;;;;;5102348;28;20067;-80
2022/01/31 19:35:31;;;;;;;27.50;4.75;;;5.40;99.90;;;;;;5099440;28;20079;-79
2022/01/31 19:38:02;;;;;;;33.13;4.78;;;5.30;99.90;;;;;;5099523;28;20152;-79
2022/01/31 19:45:41;;;;;;;32.53;4.63;;;5.30;99.90;;;;;;5104450;28;20482;-80
2022/01/31 19:48:06;;;;;;;33.75;4.28;;;5.30;99.90;;;;;;5098325;28;20040;-80
2022/01/31 19:50:32;;;;;;;41.60;6.15;;;5.50;99.90;;;;;;5100856;28;20047;-80
2022/01/31 19:52:58;;;;;;;24.35;4.30;;;5.30;99.90;;;;;;5108318;28;20035;-81
2022/01/31 19:55:25;;;;;;;28.08;5.80;;;5.30;99.90;;;;;;5104364;28;20028;-80
2022/01/31 19:57:51;;;;;;;34.38;4.38;;;5.30;99.90;;;;;;5103385;28;20177;-81
2022/01/31 20:00:18;;;;;;;36.33;4.75;;;5.40;99.90;;;;;;5097407;28;20131;-81
2022/01/31 20:02:43;;;;;;;30.50;4.20;;;5.70;99.90;;;;;;5104208;28;20039;-81
2022/01/31 20:05:09;;;;;;;29.95;4.57;;;5.30;99.90;;;;;;5094703;28;20083;-80
2022/01/31 20:07:35;;;;;;;34.10;5.57;;;5.30;99.90;;;;;;5103273;28;20055;-80
2022/01/31 20:10:04;;;;;;;42.88;7.13;;;5.40;99.90;;;;;;5106479;28;20043;-81
2022/01/31 20:12:30;;;;;;;31.23;6.03;;;5.30;99.90;;;;;;5103821;28;20102;-80
2022/01/31 20:14:56;;;;;;;36.22;6.00;;;5.30;99.90;;;;;;5097459;28;20033;-81
2022/01/31 20:17:22;;;;;;;33.78;6.15;;;5.40;99.90;;;;;;5097403;28;20182;-81
2022/01/31 20:19:47;;;;;;;37.08;6.20;;;5.40;99.90;;;;;;5095843;28;20040;-80
2022/01/31 20:22:15;;;;;;;32.72;4.82;;;5.30;99.90;;;;;;5102333;28;20176;-81
2022/01/31 20:24:41;;;;;;;34.45;5.00;;;5.30;99.90;;;;;;5100019;28;20045;-80
2022/01/31 20:27:07;;;;;;;34.83;5.00;;;5.20;99.90;;;;;;5086392;28;20101;-81
2022/01/31 20:29:33;;;;;;;41.67;6.70;;;5.20;99.90;;;;;;5089374;28;20051;-81
2022/01/31 20:31:59;;;;;;;28.73;4.80;;;5.20;99.90;;;;;;5082434;28;20082;-81
2022/01/31 20:34:25;;;;;;;37.83;4.90;;;5.30;99.90;;;;;;5093353;28;20047;-81
2022/01/31 20:36:51;;;;;;;28.40;4.18;;;5.20;99.90;;;;;;5089795;28;20048;-81
2022/01/31 20:39:26;;;;;;;33.72;5.32;;;5.20;99.90;;;;;;5080921;28;20402;-81
2022/01/31 20:41:52;;;;;;;28.33;4.07;;;5.30;99.90;;;;;;5090474;28;20047;-80
2022/01/31 20:44:20;;;;;;;26.05;4.38;;;5.20;99.90;;;;;;5087049;28;20048;-81
2022/01/31 20:46:50;;;;;;;27.05;3.63;;;5.20;99.90;;;;;;5092693;28;20055;-81
2022/01/31 20:49:16;;;;;;;31.58;3.95;;;5.10;99.90;;;;;;5084389;28;20570;-81
2022/01/31 20:51:43;;;;;;;27.40;3.75;;;5.10;99.90;;;;;;5090817;28;20062;-81
2022/01/31 20:54:09;;;;;;;34.15;4.75;;;5.00;99.90;;;;;;5081492;28;20056;-81
2022/01/31 20:56:34;;;;;;;29.88;4.80;;;5.00;99.90;;;;;;5090011;28;20047;-80
2022/01/31 20:59:00;;;;;;;21.88;4.38;;;5.00;99.90;;;;;;5083369;28;20044;-80
2022/01/31 21:01:28;;;;;;;30.55;4.63;;;4.90;99.90;;;;;;5088193;28;21891;-80
2022/01/31 21:03:55;;;;;;;27.23;3.90;;;4.80;99.90;;;;;;5094061;28;20036;-80
2022/01/31 21:06:20;;;;;;;23.15;3.65;;;4.80;99.90;;;;;;5084117;28;20512;-80
2022/01/31 21:08:48;;;;;;;27.40;4.15;;;4.70;99.90;;;;;;5092753;28;20032;-80
2022/01/31 21:11:20;;;;;;;25.67;3.65;;;4.70;99.90;;;;;;5088831;28;20043;-80
2022/01/31 21:13:45;;;;;;;26.73;5.35;;;4.60;99.90;;;;;;5092561;28;20115;-80
2022/01/31 21:16:11;;;;;;;26.25;3.47;;;4.60;99.90;;;;;;5086826;28;20135;-80
2022/01/31 21:18:37;;;;;;;19.20;3.75;;;4.60;99.90;;;;;;5090011;28;20051;-80
2022/01/31 21:21:03;;;;;;;33.95;4.65;;;4.50;99.90;;;;;;5094055;28;20036;-80
2022/01/31 21:23:29;;;;;;;25.23;4.60;;;4.50;99.90;;;;;;5097126;28;20044;-80
2022/01/31 21:25:56;;;;;;;24.67;3.78;;;4.40;99.90;;;;;;5096729;28;20389;-80
2022/01/31 21:28:22;;;;;;;24.20;3.53;;;4.40;99.90;;;;;;5093381;28;20054;-80
2022/01/31 21:30:48;;;;;;;19.83;3.00;;;4.30;99.90;;;;;;5096934;28;20148;-80
2022/01/31 21:33:22;;;;;;;25.08;3.72;;;4.30;99.90;;;;;;5087920;28;20629;-79
2022/01/31 21:35:48;;;;;;;24.05;3.72;;;4.20;99.90;;;;;;5086300;28;20422;-80
2022/01/31 21:38:14;;;;;;;27.38;3.58;;;4.20;99.90;;;;;;5080240;28;20068;-79
2022/01/31 21:40:40;;;;;;;24.63;3.60;;;4.20;99.90;;;;;;5094020;28;20047;-80
2022/01/31 21:43:05;;;;;;;29.65;4.25;;;4.10;99.90;;;;;;5097286;28;20080;-79
2022/01/31 21:45:31;;;;;;;22.92;3.53;;;4.10;99.90;;;;;;5085076;28;20037;-80
2022/01/31 21:47:58;;;;;;;22.08;3.58;;;4.10;99.90;;;;;;5088024;28;20081;-80
2022/01/31 21:50:23;;;;;;;24.75;3.67;;;4.10;99.90;;;;;;5089996;28;20048;-79
2022/01/31 21:52:49;;;;;;;23.67;3.22;;;4.10;99.90;;;;;;5091373;28;20039;-78
2022/01/31 21:55:17;;;;;;;29.48;3.80;;;4.00;99.90;;;;;;5084641;28;20043;-80
2022/01/31 21:57:48;;;;;;;27.45;4.45;;;4.00;99.90;;;;;;5094131;28;20500;-79
2022/01/31 22:00:16;;;;;;;25.80;3.97;;;3.90;99.90;;;;;;5087608;28;20052;-79
2022/01/31 22:02:42;;;;;;;22.00;3.63;;;4.00;99.90;;;;;;5084081;28;20041;-80
2022/01/31 22:05:10;;;;;;;19.55;2.67;;;3.90;99.90;;;;;;5083519;28;20040;-79
2022/01/31 22:07:37;;;;;;;26.42;4.20;;;4.00;99.90;;;;;;5085451;28;20040;-79
2022/01/31 22:10:24;;;;;;;22.95;3.50;;;4.00;99.90;;;;;;5083905;28;20051;-79
2022/01/31 22:12:50;;;;;;;24.60;4.57;;;3.90;99.90;;;;;;5082374;28;20055;-79
2022/01/31 22:15:16;;;;;;;15.93;2.67;;;3.90;99.90;;;;;;5093039;28;20039;-79
2022/01/31 22:17:42;;;;;;;22.60;3.78;;;3.90;99.90;;;;;;5083798;28;20052;-79
2022/01/31 22:20:08;;;;;;;27.67;3.92;;;3.90;99.90;;;;;;5087914;28;20044;-79
2022/01/31 22:22:34;;;;;;;18.55;3.45;;;3.90;99.90;;;;;;5085326;28;20086;-79
2022/01/31 22:25:00;;;;;;;20.15;2.72;;;3.90;99.90;;;;;;5083790;28;20039;-79
2022/01/31 22:27:26;;;;;;;28.05;4.22;;;3.80;99.90;;;;;;5079956;28;20501;-79
2022/01/31 22:29:52;;;;;;;17.77;3.65;;;3.80;99.90;;;;;;5088912;28;20090;-79
2022/01/31 22:32:19;;;;;;;21.92;3.38;;;3.70;99.90;;;;;;5087750;28;20040;-79
2022/01/31 22:34:46;;;;;;;25.73;3.05;;;3.80;99.90;;;;;;5078455;28;20044;-79
2022/01/31 22:37:11;;;;;;;25.27;3.50;;;3.70;99.90;;;;;;5081462;28;20044;-79
2022/01/31 22:39:37;;;;;;;19.10;3.00;;;3.70;99.90;;;;;;5086871;28;20040;-79
2022/01/31 22:42:05;;;;;;;21.25;3.40;;;3.70;99.90;;;;;;5082234;28;20115;-79
2022/01/31 22:44:31;;;;;;;18.73;3.22;;;3.70;99.90;;;;;;5080991;28;20074;-79
2022/01/31 22:46:57;;;;;;;13.38;2.45;;;3.60;99.90;;;;;;5081030;28;20036;-79
2022/01/31 22:49:23;;;;;;;25.45;3.08;;;3.60;99.90;;;;;;5082134;28;20424;-79
2022/01/31 22:51:49;;;;;;;19.65;2.47;;;3.60;99.90;;;;;;5080942;28;20032;-79
2022/01/31 22:54:16;;;;;;;20.75;3.35;;;3.60;99.90;;;;;;5083227;28;20043;-79
2022/01/31 22:56:42;;;;;;;14.57;3.25;;;3.60;99.90;;;;;;5076594;28;20102;-79
2022/01/31 22:59:08;;;;;;;21.90;4.13;;;3.50;99.90;;;;;;5082045;28;20481;-79
2022/01/31 23:01:33;;;;;;;21.17;2.45;;;3.60;99.90;;;;;;5080564;28;20136;-79
2022/01/31 23:03:59;;;;;;;16.60;2.17;;;3.50;99.90;;;;;;5081567;28;20110;-79
2022/01/31 23:06:25;;;;;;;16.45;3.08;;;3.50;99.90;;;;;;5086549;28;20044;-79
2022/01/31 23:08:51;;;;;;;14.90;2.42;;;3.50;99.90;;;;;;5081424;28;20047;-79
2022/01/31 23:11:17;;;;;;;19.58;2.40;;;3.50;99.90;;;;;;5079698;28;20040;-79
2022/01/31 23:13:58;;;;;;;17.38;4.07;;;3.50;99.90;;;;;;5077509;28;20066;-79
2022/01/31 23:16:29;;;;;;;21.55;3.38;;;3.50;99.90;;;;;;5085882;28;20055;-79
2022/01/31 23:21:52;;;;;;;18.33;2.53;;;3.60;99.90;;;;;;5080009;28;20037;-78
2022/01/31 23:44:50;;;;;;;16.63;1.75;;;3.50;99.90;;;;;;5081421;28;20036;-78
